Terminal Aerodrome Forecast
Issued by NWS Grand Forks, ND

Home | Current Version | Previous Version | Graphics & Text | Print | Product List | Glossary On
Versions: 1 2 3 4 5 6 7 8 9 10 11 12 13 14 15 16 17
038
FTUS43 KFGF 080520
TAFGFK
TAF
KGFK 080520Z 0806/0906 32018G28KT 3SM BLSN OVC015
      TEMPO 0806/0810 1SM -SN OVC007
     FM081000 32017G25KT 4SM BLSN OVC020
     FM081200 32016KT P6SM OVC025
     FM081400 32015KT P6SM OVC050
     FM082200 32012KT P6SM OVC020
     FM090500 30009KT P6SM BKN035=

USA.gov is the U.S. government's official web portal to all federal, state and local government web resources and services.